Time;durP1;ratioP1;P1;durP2;ratioP2;P2;SDS_P1;SDS_P2;PMS_P1;PMS_P2;Temp;Humidity;BMP_temperature;BMP_pressure;BME280_temperature;BME280_humidity;BME280_pressure;Samples;Min_cycle;Max_cycle;Signal;HPM_P1;HPM_P2
2021/04/20 00:01:58;;;;;;;56.23;41.07;;;;;;;;;;5022024;28;20586;-63
2021/04/20 00:04:24;;;;;;;44.23;34.47;;;;;;;;;;5026019;28;20200;-64
2021/04/20 00:06:50;;;;;;;42.83;33.00;;;;;;;;;;5022661;28;20204;-62
2021/04/20 00:09:16;;;;;;;175.27;36.47;;;;;;;;;;5031047;28;20651;-63
2021/04/20 00:11:42;;;;;;;119.90;31.77;;;;;;;;;;5028504;28;20571;-63
2021/04/20 00:14:11;;;;;;;464.97;44.53;;;;;;;;;;5020849;28;20196;-63
2021/04/20 00:16:37;;;;;;;72.93;32.80;;;;;;;;;;5022589;28;20188;-62
2021/04/20 00:19:07;;;;;;;68.83;33.33;;;;;;;;;;5026228;28;20191;-62
2021/04/20 00:21:33;;;;;;;75.30;33.83;;;;;;;;;;5023316;28;20305;-62
2021/04/20 00:23:59;;;;;;;55.00;30.33;;;;;;;;;;5024008;28;20190;-63
2021/04/20 00:26:25;;;;;;;42.17;30.17;;;;;;;;;;5020967;28;20762;-63
2021/04/20 00:28:51;;;;;;;486.33;44.37;;;;;;;;;;5025085;28;20190;-63
2021/04/20 00:31:17;;;;;;;124.27;34.17;;;;;;;;;;5027657;28;20620;-62
2021/04/20 00:33:43;;;;;;;36.97;32.17;;;;;;;;;;5024326;28;20228;-61
2021/04/20 00:36:09;;;;;;;44.93;33.17;;;;;;;;;;5025057;28;20186;-61
2021/04/20 00:38:36;;;;;;;42.67;33.13;;;;;;;;;;5029637;28;20610;-62
2021/04/20 00:41:06;;;;;;;46.37;31.50;;;;;;;;;;5028880;28;20192;-64
2021/04/20 00:43:33;;;;;;;84.33;28.73;;;;;;;;;;5023963;28;20206;-62
2021/04/20 00:45:59;;;;;;;41.40;27.33;;;;;;;;;;5029549;28;20270;-64
2021/04/20 00:48:25;;;;;;;73.87;27.40;;;;;;;;;;5027855;28;20733;-64
2021/04/20 00:50:50;;;;;;;58.70;26.37;;;;;;;;;;5029977;28;20215;-64
2021/04/20 00:53:16;;;;;;;105.77;26.23;;;;;;;;;;5027049;28;20180;-64
2021/04/20 00:55:42;;;;;;;27.70;24.97;;;;;;;;;;5025369;28;20271;-62
2021/04/20 00:58:09;;;;;;;26.10;23.53;;;;;;;;;;5020187;28;20803;-61
2021/04/20 01:00:35;;;;;;;26.13;23.53;;;;;;;;;;5026471;28;20214;-63
2021/04/20 01:03:01;;;;;;;29.30;26.30;;;;;;;;;;5021285;28;20258;-62
2021/04/20 01:05:34;;;;;;;47.70;27.67;;;;;;;;;;5027406;28;20313;-62
2021/04/20 01:08:01;;;;;;;32.80;29.27;;;;;;;;;;5028932;28;20212;-62
2021/04/20 01:10:28;;;;;;;37.80;29.03;;;;;;;;;;5023129;28;20221;-61
2021/04/20 01:12:54;;;;;;;33.37;28.73;;;;;;;;;;5025379;28;20196;-63
2021/04/20 01:15:20;;;;;;;31.50;28.13;;;;;;;;;;5034295;28;20661;-62
2021/04/20 01:17:46;;;;;;;31.87;28.23;;;;;;;;;;5031462;28;20223;-62
2021/04/20 01:20:13;;;;;;;31.00;27.23;;;;;;;;;;5029087;28;20556;-62
2021/04/20 01:22:40;;;;;;;33.97;28.20;;;;;;;;;;5031750;28;20606;-62
2021/04/20 01:25:07;;;;;;;31.83;27.00;;;;;;;;;;5025257;28;20270;-61
2021/04/20 01:27:34;;;;;;;57.87;27.60;;;;;;;;;;5027875;28;20667;-61
2021/04/20 01:30:00;;;;;;;29.47;26.27;;;;;;;;;;5029878;28;20698;-62
2021/04/20 01:32:27;;;;;;;29.87;26.67;;;;;;;;;;5028739;28;20178;-62
2021/04/20 01:34:53;;;;;;;29.33;25.67;;;;;;;;;;5022985;28;20202;-62
2021/04/20 01:37:19;;;;;;;27.80;24.87;;;;;;;;;;5034014;28;20250;-62
2021/04/20 01:39:49;;;;;;;27.50;24.27;;;;;;;;;;5025178;28;20197;-61
2021/04/20 01:42:16;;;;;;;33.17;26.47;;;;;;;;;;5028092;28;20196;-62
2021/04/20 01:44:42;;;;;;;46.67;27.70;;;;;;;;;;5027477;28;20188;-62
2021/04/20 01:47:08;;;;;;;29.13;25.53;;;;;;;;;;5027526;28;20221;-63
2021/04/20 01:49:35;;;;;;;27.50;24.63;;;;;;;;;;5025410;28;20190;-62
2021/04/20 01:52:01;;;;;;;28.47;25.37;;;;;;;;;;5030466;28;20644;-63
2021/04/20 01:54:27;;;;;;;29.27;26.07;;;;;;;;;;5030961;28;20185;-62
2021/04/20 01:56:55;;;;;;;27.17;24.47;;;;;;;;;;5024252;28;20705;-63
2021/04/20 01:59:21;;;;;;;30.30;25.17;;;;;;;;;;5026652;28;20211;-63
2021/04/20 02:01:47;;;;;;;28.30;25.50;;;;;;;;;;5024573;28;20198;-63
2021/04/20 02:04:14;;;;;;;29.30;26.23;;;;;;;;;;5028701;28;20280;-63
2021/04/20 02:06:40;;;;;;;28.90;25.93;;;;;;;;;;5025799;28;20228;-62
2021/04/20 02:09:07;;;;;;;31.17;26.87;;;;;;;;;;5021772;28;20182;-62
2021/04/20 02:11:33;;;;;;;32.77;25.13;;;;;;;;;;5029727;28;20206;-63
2021/04/20 02:13:59;;;;;;;29.37;26.20;;;;;;;;;;5029775;28;20202;-63
2021/04/20 02:16:26;;;;;;;29.27;25.97;;;;;;;;;;5029687;28;20275;-63
2021/04/20 02:18:54;;;;;;;29.17;26.30;;;;;;;;;;5026664;28;20196;-63
2021/04/20 02:21:20;;;;;;;27.10;23.80;;;;;;;;;;5025332;28;20369;-64
2021/04/20 02:23:46;;;;;;;26.30;23.57;;;;;;;;;;5020864;28;20202;-62
2021/04/20 02:26:15;;;;;;;27.77;24.67;;;;;;;;;;5028147;28;20196;-62
2021/04/20 02:28:41;;;;;;;27.27;24.47;;;;;;;;;;5029230;28;20213;-61
2021/04/20 02:31:08;;;;;;;28.77;24.93;;;;;;;;;;5026543;28;20739;-63
2021/04/20 02:33:34;;;;;;;25.53;22.93;;;;;;;;;;5028230;28;20202;-63
2021/04/20 02:36:00;;;;;;;26.70;24.00;;;;;;;;;;5027471;28;20312;-61
2021/04/20 02:38:27;;;;;;;25.97;23.37;;;;;;;;;;5028852;28;20285;-62
2021/04/20 02:40:57;;;;;;;27.53;24.53;;;;;;;;;;5031029;28;20210;-62
2021/04/20 02:43:24;;;;;;;29.90;25.43;;;;;;;;;;5025831;28;20192;-61
2021/04/20 02:45:54;;;;;;;28.43;25.17;;;;;;;;;;5028045;28;20186;-64
2021/04/20 02:48:20;;;;;;;79.97;27.47;;;;;;;;;;5020123;28;20228;-62
2021/04/20 02:50:46;;;;;;;30.83;25.70;;;;;;;;;;5025782;28;20576;-62
2021/04/20 02:53:16;;;;;;;43.93;26.47;;;;;;;;;;5024769;28;20190;-61
2021/04/20 02:55:42;;;;;;;31.80;25.63;;;;;;;;;;5023123;28;20206;-62
2021/04/20 02:58:14;;;;;;;30.03;26.93;;;;;;;;;;5022040;28;20207;-61
2021/04/20 03:00:41;;;;;;;44.97;27.07;;;;;;;;;;5025214;28;20245;-65
2021/04/20 03:03:07;;;;;;;30.70;27.00;;;;;;;;;;5019446;28;20215;-62
2021/04/20 03:05:34;;;;;;;50.73;26.87;;;;;;;;;;5023592;28;20196;-63
2021/04/20 03:08:00;;;;;;;28.53;25.63;;;;;;;;;;5028024;28;20297;-63
2021/04/20 03:10:26;;;;;;;26.27;23.77;;;;;;;;;;5024097;28;20186;-62
2021/04/20 03:12:52;;;;;;;70.00;26.73;;;;;;;;;;5020398;28;20246;-61
2021/04/20 03:15:18;;;;;;;30.07;27.00;;;;;;;;;;5016931;28;20239;-64
2021/04/20 03:17:46;;;;;;;37.47;25.80;;;;;;;;;;5026518;28;20289;-61
2021/04/20 03:20:13;;;;;;;42.03;25.00;;;;;;;;;;5020304;28;20193;-61
2021/04/20 03:22:43;;;;;;;31.47;26.07;;;;;;;;;;5019097;28;20222;-64
2021/04/20 03:25:09;;;;;;;30.47;27.27;;;;;;;;;;5022966;28;20217;-63
2021/04/20 03:27:36;;;;;;;29.03;26.03;;;;;;;;;;5026339;28;20220;-62
2021/04/20 03:30:04;;;;;;;29.33;26.37;;;;;;;;;;5025464;28;20253;-63
2021/04/20 03:32:30;;;;;;;29.63;26.23;;;;;;;;;;5021689;28;20181;-63
2021/04/20 03:34:59;;;;;;;30.70;25.23;;;;;;;;;;5022748;28;20203;-62
2021/04/20 03:37:33;;;;;;;28.67;25.77;;;;;;;;;;5026148;28;20232;-62
2021/04/20 03:40:00;;;;;;;127.23;29.63;;;;;;;;;;5027752;28;20185;-62
2021/04/20 03:42:35;;;;;;;58.67;26.33;;;;;;;;;;5022408;28;20296;-62
2021/04/20 03:45:03;;;;;;;57.80;27.20;;;;;;;;;;5024463;28;20190;-62
2021/04/20 03:47:40;;;;;;;30.13;26.93;;;;;;;;;;5032915;28;20220;-64
2021/04/20 03:50:26;;;;;;;30.60;26.07;;;;;;;;;;5023594;28;20198;-62
2021/04/20 03:52:55;;;;;;;27.37;24.63;;;;;;;;;;5023906;28;20184;-62
2021/04/20 03:55:23;;;;;;;27.87;25.13;;;;;;;;;;5024791;28;20186;-62
2021/04/20 03:57:49;;;;;;;27.17;24.33;;;;;;;;;;5026395;28;20204;-62
2021/04/20 04:00:17;;;;;;;26.47;23.87;;;;;;;;;;5025548;28;20223;-63
2021/04/20 04:02:44;;;;;;;29.17;25.83;;;;;;;;;;5024870;28;20197;-62
2021/04/20 04:05:12;;;;;;;27.93;24.97;;;;;;;;;;5021671;28;20201;-63
2021/04/20 04:07:39;;;;;;;27.47;24.67;;;;;;;;;;5028970;28;20237;-63
2021/04/20 04:10:06;;;;;;;27.97;25.20;;;;;;;;;;5031422;28;20209;-63
2021/04/20 04:12:36;;;;;;;28.23;25.20;;;;;;;;;;5031244;28;20188;-64
2021/04/20 04:15:02;;;;;;;27.83;25.03;;;;;;;;;;5021832;28;21199;-62
2021/04/20 04:17:29;;;;;;;26.87;24.07;;;;;;;;;;5028301;28;20219;-62
2021/04/20 04:19:55;;;;;;;27.73;24.97;;;;;;;;;;5025439;28;20194;-64
2021/04/20 04:22:28;;;;;;;25.67;23.13;;;;;;;;;;5029966;28;20271;-63
2021/04/20 04:24:55;;;;;;;27.17;24.27;;;;;;;;;;5026872;28;20202;-63
2021/04/20 04:27:22;;;;;;;27.13;24.53;;;;;;;;;;5028557;28;20342;-64
2021/04/20 04:29:51;;;;;;;26.17;23.50;;;;;;;;;;5029466;28;20232;-61
2021/04/20 04:32:18;;;;;;;25.80;23.23;;;;;;;;;;5022898;28;20198;-62
2021/04/20 04:34:45;;;;;;;25.50;22.10;;;;;;;;;;5026242;28;20197;-63
2021/04/20 04:37:11;;;;;;;24.77;22.27;;;;;;;;;;5029779;28;20658;-62
2021/04/20 04:39:37;;;;;;;25.37;22.73;;;;;;;;;;5028690;28;20226;-63
2021/04/20 04:42:04;;;;;;;67.33;23.33;;;;;;;;;;5026209;28;20227;-62
2021/04/20 04:44:30;;;;;;;26.50;23.10;;;;;;;;;;5030230;28;20190;-62
2021/04/20 04:46:56;;;;;;;28.80;25.17;;;;;;;;;;5026507;28;20227;-62
2021/04/20 04:49:23;;;;;;;199.40;28.80;;;;;;;;;;5021589;28;20219;-61
2021/04/20 04:51:50;;;;;;;45.90;25.43;;;;;;;;;;5026623;28;20735;-62
2021/04/20 04:54:18;;;;;;;31.03;25.17;;;;;;;;;;5028172;28;20183;-61
2021/04/20 04:56:44;;;;;;;28.70;25.57;;;;;;;;;;5026064;28;20193;-62
2021/04/20 04:59:11;;;;;;;30.10;26.93;;;;;;;;;;5023884;28;20232;-62
2021/04/20 05:01:37;;;;;;;33.23;26.90;;;;;;;;;;5027048;28;20681;-63
2021/04/20 05:04:07;;;;;;;33.00;29.10;;;;;;;;;;5025819;28;20267;-64
2021/04/20 05:06:35;;;;;;;29.27;26.10;;;;;;;;;;5027248;28;20257;-63
2021/04/20 05:09:01;;;;;;;30.47;27.17;;;;;;;;;;5022039;28;20254;-62
2021/04/20 05:11:27;;;;;;;29.73;26.53;;;;;;;;;;5027322;28;20246;-63
2021/04/20 05:13:53;;;;;;;29.00;25.73;;;;;;;;;;5029753;28;20194;-64
2021/04/20 05:16:19;;;;;;;28.33;25.53;;;;;;;;;;5028322;28;20194;-64
2021/04/20 05:18:46;;;;;;;26.83;24.17;;;;;;;;;;5022073;28;20581;-64
2021/04/20 05:21:12;;;;;;;27.90;25.00;;;;;;;;;;5021546;28;20191;-65
2021/04/20 05:23:38;;;;;;;27.53;24.77;;;;;;;;;;5030764;28;20213;-64
2021/04/20 05:26:04;;;;;;;29.50;26.33;;;;;;;;;;5025712;28;20200;-64
2021/04/20 05:28:30;;;;;;;27.63;24.80;;;;;;;;;;5026795;28;20325;-65
2021/04/20 05:30:56;;;;;;;26.97;24.17;;;;;;;;;;5028221;28;20333;-63
2021/04/20 05:33:22;;;;;;;27.23;24.43;;;;;;;;;;5030045;28;20219;-63
2021/04/20 05:35:48;;;;;;;28.80;25.27;;;;;;;;;;5027546;28;20215;-63
2021/04/20 05:38:14;;;;;;;30.23;25.60;;;;;;;;;;5029449;28;20292;-62
2021/04/20 05:40:42;;;;;;;29.10;26.10;;;;;;;;;;5024888;28;20203;-63
2021/04/20 05:43:08;;;;;;;29.17;24.77;;;;;;;;;;5026590;28;20195;-66
2021/04/20 05:45:34;;;;;;;27.03;24.30;;;;;;;;;;5026416;28;20192;-63
2021/04/20 05:48:01;;;;;;;26.70;24.00;;;;;;;;;;5024809;28;20215;-63
2021/04/20 05:50:28;;;;;;;27.50;24.70;;;;;;;;;;5023932;28;20195;-65
2021/04/20 05:52:55;;;;;;;28.07;25.30;;;;;;;;;;5023740;28;20196;-64
2021/04/20 05:55:21;;;;;;;26.80;23.97;;;;;;;;;;5028195;28;20188;-65
2021/04/20 05:57:48;;;;;;;27.87;25.00;;;;;;;;;;5030329;28;20683;-64
2021/04/20 06:00:15;;;;;;;26.53;23.73;;;;;;;;;;5028637;28;20236;-64
2021/04/20 06:02:41;;;;;;;23.23;20.93;;;;;;;;;;5028013;28;20220;-66
2021/04/20 06:05:10;;;;;;;21.47;19.33;;;;;;;;;;5031490;28;20262;-65
2021/04/20 06:07:37;;;;;;;22.30;19.77;;;;;;;;;;5026923;28;20322;-65
2021/04/20 06:10:05;;;;;;;25.63;22.90;;;;;;;;;;5022886;28;20270;-65
2021/04/20 06:12:31;;;;;;;23.13;20.90;;;;;;;;;;5026944;28;20196;-65
2021/04/20 06:14:58;;;;;;;26.93;21.37;;;;;;;;;;5024117;28;20201;-65
2021/04/20 06:17:24;;;;;;;23.90;21.50;;;;;;;;;;5025667;28;20216;-65
2021/04/20 06:19:51;;;;;;;34.37;22.37;;;;;;;;;;5025182;28;20253;-66
2021/04/20 06:22:17;;;;;;;24.93;22.23;;;;;;;;;;5021826;28;20200;-65
2021/04/20 06:24:45;;;;;;;31.20;21.97;;;;;;;;;;5018232;28;20578;-65
2021/04/20 06:27:12;;;;;;;23.03;20.73;;;;;;;;;;5023086;28;20227;-65
2021/04/20 06:29:38;;;;;;;54.93;19.03;;;;;;;;;;5024215;28;20197;-66
2021/04/20 06:32:05;;;;;;;36.00;20.37;;;;;;;;;;5027201;28;20272;-65
2021/04/20 06:34:31;;;;;;;28.97;20.70;;;;;;;;;;5029888;28;20224;-63
2021/04/20 06:36:58;;;;;;;24.33;21.83;;;;;;;;;;5025477;28;20219;-65
2021/04/20 06:39:24;;;;;;;45.47;21.27;;;;;;;;;;5028485;28;20211;-64
2021/04/20 06:41:52;;;;;;;24.17;21.77;;;;;;;;;;5028738;28;20184;-64
2021/04/20 06:44:35;;;;;;;25.17;20.80;;;;;;;;;;5026425;28;20200;-67
2021/04/20 06:47:21;;;;;;;21.33;19.13;;;;;;;;;;5025870;28;20218;-66
2021/04/20 06:49:52;;;;;;;44.53;35.43;;;;;;;;;;5018372;28;21726;-67
2021/04/20 06:52:22;;;;;;;23.17;20.23;;;;;;;;;;5022144;28;20181;-66
2021/04/20 06:55:03;;;;;;;39.67;20.87;;;;;;;;;;5026253;28;20195;-65
2021/04/20 06:57:39;;;;;;;26.57;20.30;;;;;;;;;;5027175;28;20223;-66
2021/04/20 07:00:17;;;;;;;29.60;22.00;;;;;;;;;;5022603;28;20594;-66
2021/04/20 07:02:50;;;;;;;28.43;21.07;;;;;;;;;;5022281;28;20701;-67
2021/04/20 07:05:21;;;;;;;28.30;21.07;;;;;;;;;;5023635;28;20558;-65
2021/04/20 07:08:06;;;;;;;29.33;21.43;;;;;;;;;;5025208;28;20683;-65
2021/04/20 07:10:36;;;;;;;25.23;21.70;;;;;;;;;;5023205;28;20244;-64
2021/04/20 07:13:04;;;;;;;26.43;23.43;;;;;;;;;;5024147;28;20196;-64
2021/04/20 07:15:32;;;;;;;24.07;21.47;;;;;;;;;;5023965;28;20186;-65
2021/04/20 07:18:21;;;;;;;24.10;21.60;;;;;;;;;;5027630;28;20208;-65
2021/04/20 07:21:10;;;;;;;22.27;19.57;;;;;;;;;;5019821;28;20565;-67
2021/04/20 07:23:51;;;;;;;21.77;19.40;;;;;;;;;;5029858;28;20187;-64
2021/04/20 07:26:36;;;;;;;20.47;18.10;;;;;;;;;;5024781;28;20208;-65
2021/04/20 07:29:01;;;;;;;20.33;18.23;;;;;;;;;;5019267;28;20202;-65
2021/04/20 07:31:28;;;;;;;20.47;18.37;;;;;;;;;;5026177;28;20193;-64
2021/04/20 07:34:06;;;;;;;22.50;20.20;;;;;;;;;;5030731;28;20662;-63
2021/04/20 07:36:56;;;;;;;20.27;17.88;;;;;;;;;;5020940;28;20304;-65
2021/04/20 07:39:23;;;;;;;20.35;18.23;;;;;;;;;;5023597;28;20271;-66
2021/04/20 07:41:52;;;;;;;19.35;17.35;;;;;;;;;;5015734;28;20618;-65
2021/04/20 07:44:35;;;;;;;19.50;17.58;;;;;;;;;;5029572;28;20200;-65
2021/04/20 07:47:09;;;;;;;18.42;16.50;;;;;;;;;;5024756;28;20226;-65
2021/04/20 07:49:51;;;;;;;20.63;18.48;;;;;;;;;;5026183;28;20183;-66
2021/04/20 07:52:20;;;;;;;20.80;18.75;;;;;;;;;;5028205;28;20187;-65
2021/04/20 07:54:51;;;;;;;20.38;18.27;;;;;;;;;;5029887;28;20189;-65
2021/04/20 07:57:25;;;;;;;20.73;18.63;;;;;;;;;;5027728;28;20729;-65
2021/04/20 07:59:54;;;;;;;19.20;17.27;;;;;;;;;;5020928;28;20176;-66
2021/04/20 08:02:39;;;;;;;18.98;17.17;;;;;;;;;;5021599;28;20705;-65
2021/04/20 08:05:34;;;;;;;18.55;16.77;;;;;;;;;;5026576;28;20191;-68
2021/04/20 08:08:07;;;;;;;19.33;17.38;;;;;;;;;;5023562;28;20906;-67
2021/04/20 08:10:39;;;;;;;18.52;16.63;;;;;;;;;;5024920;28;20818;-67
2021/04/20 08:13:11;;;;;;;18.05;16.35;;;;;;;;;;5019850;28;20282;-68
2021/04/20 08:15:59;;;;;;;19.83;17.92;;;;;;;;;;5026784;28;20670;-67
2021/04/20 08:18:48;;;;;;;20.75;18.73;;;;;;;;;;5016663;28;20216;-67
2021/04/20 08:21:14;;;;;;;19.00;17.00;;;;;;;;;;5020950;28;20263;-67
2021/04/20 08:23:42;;;;;;;19.25;17.45;;;;;;;;;;5015912;28;20655;-67
2021/04/20 08:26:11;;;;;;;20.45;18.20;;;;;;;;;;5021819;28;20200;-66
2021/04/20 08:29:13;;;;;;;22.20;20.10;;;;;;;;;;5027587;28;20214;-66
2021/04/20 08:31:50;;;;;;;22.20;19.90;;;;;;;;;;4985448;28;20197;-66
2021/04/20 08:34:16;;;;;;;20.10;17.98;;;;;;;;;;4985947;28;20229;-69
2021/04/20 08:37:03;;;;;;;20.23;18.27;;;;;;;;;;4985878;28;20200;-68
2021/04/20 08:39:34;;;;;;;21.35;19.25;;;;;;;;;;4971850;28;20618;-67
2021/04/20 08:42:06;;;;;;;21.05;19.00;;;;;;;;;;4985779;28;20201;-67
2021/04/20 08:45:01;;;;;;;19.73;17.83;;;;;;;;;;4972251;28;20194;-68
2021/04/20 08:47:36;;;;;;;19.50;17.63;;;;;;;;;;4967665;28;20228;-68
2021/04/20 08:50:17;;;;;;;20.05;18.02;;;;;;;;;;4962944;28;20198;-68
2021/04/20 08:52:58;;;;;;;19.98;17.90;;;;;;;;;;4965163;28;20313;-67
2021/04/20 08:55:37;;;;;;;21.02;18.88;;;;;;;;;;4960922;28;20195;-67
2021/04/20 08:58:07;;;;;;;19.05;17.25;;;;;;;;;;4965699;28;20217;-66
2021/04/20 09:00:43;;;;;;;19.05;17.17;;;;;;;;;;4962999;28;20199;-67
2021/04/20 09:03:09;;;;;;;16.80;15.13;;;;;;;;;;4967719;28;20736;-67
2021/04/20 09:05:53;;;;;;;13.57;12.30;;;;;;;;;;4991222;28;20211;-67
2021/04/20 09:08:40;;;;;;;12.93;11.82;;;;;;;;;;5027697;28;20243;-66
2021/04/20 09:11:16;;;;;;;13.88;12.65;;;;;;;;;;5025708;28;20188;-66
2021/04/20 09:13:45;;;;;;;12.10;11.00;;;;;;;;;;5027729;28;20241;-66
2021/04/20 09:16:14;;;;;;;17.77;16.13;;;;;;;;;;5026962;28;20184;-66
2021/04/20 09:18:44;;;;;;;16.65;14.95;;;;;;;;;;5029010;28;20279;-66
2021/04/20 09:21:16;;;;;;;16.55;15.05;;;;;;;;;;5025000;28;20181;-66
2021/04/20 09:23:49;;;;;;;14.40;13.02;;;;;;;;;;5020607;28;20184;-65
2021/04/20 09:26:15;;;;;;;14.95;13.23;;;;;;;;;;5025250;28;20620;-66
2021/04/20 09:28:45;;;;;;;15.35;13.75;;;;;;;;;;5030330;28;20207;-66
2021/04/20 09:31:16;;;;;;;13.85;12.52;;;;;;;;;;5027810;28;20580;-67
2021/04/20 09:33:51;;;;;;;14.98;13.68;;;;;;;;;;5030829;28;20180;-66
2021/04/20 09:36:18;;;;;;;15.07;13.68;;;;;;;;;;5027470;28;20255;-66
2021/04/20 09:38:45;;;;;;;15.82;14.18;;;;;;;;;;5026790;28;20270;-67
2021/04/20 09:41:12;;;;;;;14.18;12.88;;;;;;;;;;5024636;28;20252;-66
2021/04/20 09:43:57;;;;;;;14.85;13.45;;;;;;;;;;5024234;28;20239;-67
2021/04/20 09:46:48;;;;;;;13.93;12.70;;;;;;;;;;5022569;28;20183;-67
2021/04/20 09:49:23;;;;;;;14.98;13.57;;;;;;;;;;5028314;28;20555;-66
2021/04/20 09:51:59;;;;;;;14.48;13.18;;;;;;;;;;5023545;28;20200;-66
2021/04/20 09:54:28;;;;;;;14.57;13.18;;;;;;;;;;5027899;28;20195;-67
2021/04/20 09:57:01;;;;;;;12.50;11.00;;;;;;;;;;5027449;28;20212;-66
2021/04/20 09:59:29;;;;;;;11.25;10.13;;;;;;;;;;5029267;28;20188;-65
2021/04/20 10:01:58;;;;;;;13.30;10.40;;;;;;;;;;5029511;28;20187;-65
2021/04/20 10:04:46;;;;;;;15.85;11.60;;;;;;;;;;5026972;28;20191;-65
2021/04/20 10:07:14;;;;;;;11.48;10.40;;;;;;;;;;5022391;28;20286;-67
2021/04/20 10:10:19;;;;;;;7.25;6.55;;;;;;;;;;5024531;28;20245;-67
2021/04/20 10:13:04;;;;;;;7.68;6.90;;;;;;;;;;5034258;28;20202;-64
2021/04/20 10:15:35;;;;;;;8.70;7.90;;;;;;;;;;5024274;28;20655;-66
2021/04/20 10:18:20;;;;;;;6.40;5.80;;;;;;;;;;5024022;28;20267;-66
2021/04/20 10:20:51;;;;;;;4.18;3.88;;;;;;;;;;5024044;28;20239;-65
2021/04/20 10:23:35;;;;;;;7.00;6.32;;;;;;;;;;5026151;28;20216;-66
2021/04/20 10:26:21;;;;;;;12.68;11.48;;;;;;;;;;5020604;28;20282;-66
2021/04/20 10:28:57;;;;;;;11.65;10.40;;;;;;;;;;5021016;28;20216;-65
2021/04/20 10:31:31;;;;;;;11.38;10.13;;;;;;;;;;5021370;28;20200;-66
2021/04/20 10:33:57;;;;;;;12.05;10.60;;;;;;;;;;5025332;28;20180;-66
2021/04/20 10:36:25;;;;;;;12.20;11.00;;;;;;;;;;5020579;28;20578;-65
2021/04/20 10:38:53;;;;;;;13.10;11.70;;;;;;;;;;5002309;28;20208;-66
2021/04/20 10:41:21;;;;;;;12.13;10.93;;;;;;;;;;5022952;28;20576;-66
2021/04/20 10:43:47;;;;;;;13.25;11.95;;;;;;;;;;5021035;28;20347;-66
2021/04/20 10:46:14;;;;;;;11.82;10.73;;;;;;;;;;5022799;28;20242;-66
2021/04/20 10:48:45;;;;;;;9.45;8.55;;;;;;;;;;5024250;28;20208;-66
2021/04/20 10:51:11;;;;;;;12.15;10.55;;;;;;;;;;5022197;28;20665;-66
2021/04/20 10:53:39;;;;;;;10.75;9.75;;;;;;;;;;5021757;28;20187;-66
2021/04/20 10:56:12;;;;;;;9.93;8.85;;;;;;;;;;5011842;28;20200;-66
2021/04/20 10:58:39;;;;;;;11.35;10.25;;;;;;;;;;5020916;28;20212;-66
2021/04/20 11:01:05;;;;;;;10.60;9.63;;;;;;;;;;5025677;28;20196;-66
2021/04/20 11:03:34;;;;;;;9.85;8.95;;;;;;;;;;5026646;28;20183;-69
2021/04/20 11:06:02;;;;;;;9.80;8.88;;;;;;;;;;5023492;28;20196;-63
2021/04/20 11:08:46;;;;;;;10.55;9.65;;;;;;;;;;5018727;28;20204;-65
2021/04/20 11:11:21;;;;;;;10.65;9.75;;;;;;;;;;5021737;28;20177;-65
2021/04/20 11:13:48;;;;;;;10.15;9.35;;;;;;;;;;5021932;28;20643;-64
2021/04/20 11:16:16;;;;;;;10.10;9.10;;;;;;;;;;5023428;28;20184;-64
2021/04/20 11:18:47;;;;;;;10.05;9.15;;;;;;;;;;5023696;28;20204;-63
2021/04/20 11:21:17;;;;;;;9.90;8.85;;;;;;;;;;5021799;28;20192;-64
2021/04/20 11:24:03;;;;;;;10.95;10.05;;;;;;;;;;5023924;28;20200;-64
2021/04/20 11:26:31;;;;;;;10.25;9.38;;;;;;;;;;5021373;28;20678;-63
2021/04/20 11:28:59;;;;;;;7.00;6.40;;;;;;;;;;5022376;28;20220;-62
2021/04/20 11:31:30;;;;;;;9.90;9.00;;;;;;;;;;5024017;28;20255;-65
2021/04/20 11:34:02;;;;;;;8.50;7.80;;;;;;;;;;5024575;28;20191;-65
2021/04/20 11:36:40;;;;;;;8.15;7.47;;;;;;;;;;5017774;28;20180;-62
2021/04/20 11:39:08;;;;;;;8.48;7.78;;;;;;;;;;5024479;28;20180;-63
2021/04/20 11:41:42;;;;;;;8.65;7.95;;;;;;;;;;5020498;28;20188;-63
2021/04/20 11:44:08;;;;;;;8.73;8.00;;;;;;;;;;5021745;28;20711;-62
2021/04/20 11:46:35;;;;;;;8.65;7.90;;;;;;;;;;5028420;28;20583;-63
2021/04/20 11:49:10;;;;;;;9.35;8.30;;;;;;;;;;5023983;28;20616;-62
2021/04/20 11:51:38;;;;;;;9.32;8.52;;;;;;;;;;5024428;28;20673;-62
2021/04/20 11:54:05;;;;;;;8.45;7.75;;;;;;;;;;5023473;28;20898;-62
2021/04/20 11:56:35;;;;;;;8.00;7.30;;;;;;;;;;5023899;28;20552;-63
2021/04/20 11:59:02;;;;;;;7.43;6.72;;;;;;;;;;5022054;28;20184;-63
2021/04/20 12:01:28;;;;;;;7.95;7.20;;;;;;;;;;5029082;28;20185;-63
2021/04/20 12:03:54;;;;;;;8.07;7.38;;;;;;;;;;5024002;28;20271;-64
2021/04/20 12:06:24;;;;;;;6.78;6.18;;;;;;;;;;5022351;28;20195;-64
2021/04/20 12:08:57;;;;;;;7.35;6.75;;;;;;;;;;5022400;28;20280;-63
2021/04/20 12:11:33;;;;;;;8.27;7.47;;;;;;;;;;5025050;28;20207;-63
2021/04/20 12:14:00;;;;;;;8.45;6.50;;;;;;;;;;5022955;28;20249;-63
2021/04/20 12:16:31;;;;;;;7.28;6.53;;;;;;;;;;5025736;28;20183;-63
2021/04/20 12:18:58;;;;;;;8.70;7.90;;;;;;;;;;5022671;28;21057;-63
2021/04/20 12:21:23;;;;;;;7.90;7.10;;;;;;;;;;5022202;28;20190;-63
2021/04/20 12:23:58;;;;;;;8.05;7.35;;;;;;;;;;5027531;28;20275;-63
2021/04/20 12:26:26;;;;;;;9.35;8.20;;;;;;;;;;5022638;28;20588;-62
2021/04/20 12:28:54;;;;;;;7.88;7.20;;;;;;;;;;5019842;28;20222;-63
2021/04/20 12:31:31;;;;;;;7.72;7.13;;;;;;;;;;5018755;28;20180;-62
2021/04/20 12:33:57;;;;;;;7.63;7.03;;;;;;;;;;5028539;28;20176;-62
2021/04/20 12:36:28;;;;;;;7.82;7.13;;;;;;;;;;5024942;28;20619;-61
2021/04/20 12:38:55;;;;;;;7.70;7.07;;;;;;;;;;5027296;28;20203;-62
2021/04/20 12:41:21;;;;;;;9.00;8.20;;;;;;;;;;5024110;28;20606;-61
2021/04/20 12:43:49;;;;;;;9.60;8.80;;;;;;;;;;5027639;28;20181;-61
2021/04/20 12:46:15;;;;;;;8.57;7.82;;;;;;;;;;5027015;28;20188;-63
2021/04/20 12:48:43;;;;;;;7.40;6.80;;;;;;;;;;5033634;28;20577;-63
2021/04/20 12:51:19;;;;;;;8.77;7.85;;;;;;;;;;5031501;28;20620;-62
2021/04/20 12:53:46;;;;;;;8.35;7.65;;;;;;;;;;5033276;28;20184;-62
2021/04/20 12:56:19;;;;;;;7.53;6.93;;;;;;;;;;5026261;28;20180;-63
2021/04/20 12:58:45;;;;;;;7.47;6.82;;;;;;;;;;5026325;28;20291;-63
2021/04/20 13:01:12;;;;;;;7.60;7.00;;;;;;;;;;5028082;28;20206;-63
2021/04/20 13:03:39;;;;;;;9.15;7.43;;;;;;;;;;5025457;28;20542;-62
2021/04/20 13:06:10;;;;;;;7.75;7.00;;;;;;;;;;5024083;28;20653;-63
2021/04/20 13:08:42;;;;;;;7.07;6.50;;;;;;;;;;5023592;28;20218;-64
2021/04/20 13:11:10;;;;;;;8.35;7.55;;;;;;;;;;5026280;28;20188;-63
2021/04/20 13:13:36;;;;;;;8.55;7.70;;;;;;;;;;5024284;28;20191;-62
2021/04/20 13:16:03;;;;;;;7.78;6.90;;;;;;;;;;5026601;28;20676;-63
2021/04/20 13:18:31;;;;;;;7.43;6.82;;;;;;;;;;5027685;28;20243;-63
2021/04/20 13:20:58;;;;;;;7.30;6.57;;;;;;;;;;5026766;28;20679;-61
2021/04/20 13:23:36;;;;;;;7.25;6.30;;;;;;;;;;5022359;28;20211;-63
2021/04/20 13:26:04;;;;;;;9.20;7.43;;;;;;;;;;5023959;28;20647;-63
2021/04/20 13:28:34;;;;;;;7.88;7.20;;;;;;;;;;5023552;28;20217;-61
2021/04/20 13:31:02;;;;;;;8.45;6.70;;;;;;;;;;5029791;28;20359;-62
2021/04/20 13:33:29;;;;;;;7.93;7.22;;;;;;;;;;5024852;28;20216;-63
2021/04/20 13:35:58;;;;;;;8.95;7.15;;;;;;;;;;5022727;28;20181;-61
2021/04/20 13:38:25;;;;;;;7.47;6.80;;;;;;;;;;5026474;28;20221;-62
2021/04/20 13:40:52;;;;;;;8.00;7.40;;;;;;;;;;5024166;28;20714;-62
2021/04/20 13:43:19;;;;;;;7.53;6.93;;;;;;;;;;5029010;28;20604;-63
2021/04/20 13:45:47;;;;;;;7.22;6.63;;;;;;;;;;5027650;28;20214;-62
2021/04/20 13:48:19;;;;;;;7.53;6.78;;;;;;;;;;5022435;28;20219;-62
2021/04/20 13:50:45;;;;;;;7.95;7.18;;;;;;;;;;5033987;28;20191;-63
2021/04/20 13:53:32;;;;;;;7.30;6.70;;;;;;;;;;5023714;28;20188;-63
2021/04/20 13:56:19;;;;;;;7.53;6.82;;;;;;;;;;5021939;28;20192;-64
2021/04/20 13:58:54;;;;;;;7.78;6.97;;;;;;;;;;5024835;28;20204;-64
2021/04/20 14:01:22;;;;;;;6.50;5.97;;;;;;;;;;5020331;28;20196;-64
2021/04/20 14:03:51;;;;;;;6.97;6.28;;;;;;;;;;5021299;28;20184;-67
2021/04/20 14:06:18;;;;;;;7.28;6.57;;;;;;;;;;5022220;28;20176;-66
2021/04/20 14:08:55;;;;;;;6.32;5.72;;;;;;;;;;5024442;28;20252;-67
2021/04/20 14:11:23;;;;;;;6.40;5.80;;;;;;;;;;5022824;28;20688;-67
2021/04/20 14:13:50;;;;;;;6.38;5.72;;;;;;;;;;5022370;28;20192;-67
2021/04/20 14:16:17;;;;;;;6.30;5.70;;;;;;;;;;5024355;28;20255;-66
2021/04/20 14:18:45;;;;;;;9.23;8.43;;;;;;;;;;5023513;28;20236;-66
2021/04/20 14:21:13;;;;;;;9.90;9.07;;;;;;;;;;5023289;28;20199;-66
2021/04/20 14:23:40;;;;;;;11.10;10.10;;;;;;;;;;5035442;28;20329;-67
2021/04/20 14:26:11;;;;;;;12.35;10.30;;;;;;;;;;5031413;28;20199;-66
2021/04/20 14:28:38;;;;;;;12.13;10.93;;;;;;;;;;5029986;28;20988;-66
2021/04/20 14:31:05;;;;;;;14.30;12.95;;;;;;;;;;5023257;28;20723;-65
2021/04/20 14:33:33;;;;;;;13.77;12.38;;;;;;;;;;5025310;28;20184;-67
2021/04/20 14:36:00;;;;;;;16.55;12.73;;;;;;;;;;5025754;28;20187;-69
2021/04/20 14:38:33;;;;;;;12.63;11.38;;;;;;;;;;5016540;28;20654;-67
2021/04/20 14:40:59;;;;;;;12.98;11.68;;;;;;;;;;5027884;28;20188;-67